sensor_id;sensor_type;location;lat;lon;timestamp;P1;durP1;ratioP1;P2;durP2;ratioP2
44270;SDS011;29963;44.594;11.368;2024-03-23T00:56:08;19.52;;;15.38;;
44270;SDS011;29963;44.594;11.368;2024-03-23T00:58:34;21.38;;;16.00;;
44270;SDS011;29963;44.594;11.368;2024-03-23T01:01:00;18.10;;;15.75;;
44270;SDS011;29963;44.594;11.368;2024-03-23T01:03:25;25.42;;;15.68;;
44270;SDS011;29963;44.594;11.368;2024-03-23T01:05:51;25.10;;;17.30;;
44270;SDS011;29963;44.594;11.368;2024-03-23T01:08:19;18.55;;;15.52;;
44270;SDS011;29963;44.594;11.368;2024-03-23T01:10:53;18.33;;;15.52;;
44270;SDS011;29963;44.594;11.368;2024-03-23T01:13:22;18.45;;;14.82;;
44270;SDS011;29963;44.594;11.368;2024-03-23T01:15:49;24.10;;;16.42;;
44270;SDS011;29963;44.594;11.368;2024-03-23T01:18:16;17.33;;;14.55;;
44270;SDS011;29963;44.594;11.368;2024-03-23T01:20:42;19.95;;;15.38;;
44270;SDS011;29963;44.594;11.368;2024-03-23T01:23:08;19.80;;;14.65;;
44270;SDS011;29963;44.594;11.368;2024-03-23T01:25:34;20.83;;;14.50;;
44270;SDS011;29963;44.594;11.368;2024-03-23T01:27:59;14.82;;;12.45;;
44270;SDS011;29963;44.594;11.368;2024-03-23T01:30:25;18.27;;;14.60;;
44270;SDS011;29963;44.594;11.368;2024-03-23T01:32:51;14.95;;;12.23;;
44270;SDS011;29963;44.594;11.368;2024-03-23T01:35:16;14.63;;;12.90;;
44270;SDS011;29963;44.594;11.368;2024-03-23T01:37:42;18.25;;;13.65;;
44270;SDS011;29963;44.594;11.368;2024-03-23T01:40:08;16.27;;;13.35;;
44270;SDS011;29963;44.594;11.368;2024-03-23T01:42:33;15.93;;;13.50;;
44270;SDS011;29963;44.594;11.368;2024-03-23T01:44:59;15.65;;;13.90;;
44270;SDS011;29963;44.594;11.368;2024-03-23T01:47:25;15.35;;;13.32;;
44270;SDS011;29963;44.594;11.368;2024-03-23T01:49:51;20.27;;;13.68;;
44270;SDS011;29963;44.594;11.368;2024-03-23T01:52:17;14.00;;;12.05;;
44270;SDS011;29963;44.594;11.368;2024-03-23T01:54:42;16.63;;;11.90;;
44270;SDS011;29963;44.594;11.368;2024-03-23T01:57:09;13.63;;;11.82;;
44270;SDS011;29963;44.594;11.368;2024-03-23T01:59:35;19.25;;;13.77;;
44270;SDS011;29963;44.594;11.368;2024-03-23T02:02:01;14.43;;;10.65;;
44270;SDS011;29963;44.594;11.368;2024-03-23T02:04:27;13.93;;;11.32;;
44270;SDS011;29963;44.594;11.368;2024-03-23T02:06:52;13.93;;;12.07;;
44270;SDS011;29963;44.594;11.368;2024-03-23T02:09:18;13.98;;;12.20;;
44270;SDS011;29963;44.594;11.368;2024-03-23T02:11:44;15.10;;;12.18;;
44270;SDS011;29963;44.594;11.368;2024-03-23T02:14:09;10.85;;;9.75;;
44270;SDS011;29963;44.594;11.368;2024-03-23T02:16:35;10.52;;;9.43;;
44270;SDS011;29963;44.594;11.368;2024-03-23T02:19:01;12.43;;;10.43;;
44270;SDS011;29963;44.594;11.368;2024-03-23T02:21:26;12.05;;;10.48;;
44270;SDS011;29963;44.594;11.368;2024-03-23T02:23:52;13.75;;;10.95;;
44270;SDS011;29963;44.594;11.368;2024-03-23T02:26:18;13.48;;;10.77;;
44270;SDS011;29963;44.594;11.368;2024-03-23T02:28:44;11.93;;;10.45;;
44270;SDS011;29963;44.594;11.368;2024-03-23T02:31:09;15.30;;;11.25;;
44270;SDS011;29963;44.594;11.368;2024-03-23T02:33:35;14.77;;;10.98;;
44270;SDS011;29963;44.594;11.368;2024-03-23T02:36:03;11.70;;;9.73;;
44270;SDS011;29963;44.594;11.368;2024-03-23T02:38:29;10.00;;;8.98;;
44270;SDS011;29963;44.594;11.368;2024-03-23T02:40:54;11.50;;;9.50;;
44270;SDS011;29963;44.594;11.368;2024-03-23T02:43:25;13.45;;;11.15;;
44270;SDS011;29963;44.594;11.368;2024-03-23T02:45:51;10.18;;;9.07;;
44270;SDS011;29963;44.594;11.368;2024-03-23T02:48:17;10.43;;;8.48;;
44270;SDS011;29963;44.594;11.368;2024-03-23T02:50:42;9.48;;;7.70;;
44270;SDS011;29963;44.594;11.368;2024-03-23T02:53:08;10.38;;;9.38;;
44270;SDS011;29963;44.594;11.368;2024-03-23T02:55:34;11.35;;;9.77;;
44270;SDS011;29963;44.594;11.368;2024-03-23T02:58:00;10.23;;;9.05;;
44270;SDS011;29963;44.594;11.368;2024-03-23T03:00:27;10.07;;;9.05;;
44270;SDS011;29963;44.594;11.368;2024-03-23T03:02:53;12.43;;;9.43;;
44270;SDS011;29963;44.594;11.368;2024-03-23T03:05:19;12.13;;;9.48;;
44270;SDS011;29963;44.594;11.368;2024-03-23T03:07:44;11.52;;;9.38;;
44270;SDS011;29963;44.594;11.368;2024-03-23T03:10:10;8.88;;;7.97;;
44270;SDS011;29963;44.594;11.368;2024-03-23T03:12:36;10.13;;;8.18;;
44270;SDS011;29963;44.594;11.368;2024-03-23T03:15:03;10.10;;;9.10;;
44270;SDS011;29963;44.594;11.368;2024-03-23T03:17:29;10.82;;;8.63;;
44270;SDS011;29963;44.594;11.368;2024-03-23T03:19:55;11.20;;;8.52;;
44270;SDS011;29963;44.594;11.368;2024-03-23T03:22:22;12.13;;;8.95;;
44270;SDS011;29963;44.594;11.368;2024-03-23T03:24:48;10.55;;;9.45;;
44270;SDS011;29963;44.594;11.368;2024-03-23T03:27:13;11.60;;;9.82;;
44270;SDS011;29963;44.594;11.368;2024-03-23T03:29:39;10.70;;;8.60;;
44270;SDS011;29963;44.594;11.368;2024-03-23T03:32:05;13.45;;;9.65;;
44270;SDS011;29963;44.594;11.368;2024-03-23T03:34:31;15.27;;;10.27;;
44270;SDS011;29963;44.594;11.368;2024-03-23T03:36:57;12.75;;;9.73;;
44270;SDS011;29963;44.594;11.368;2024-03-23T03:39:23;9.93;;;8.90;;
44270;SDS011;29963;44.594;11.368;2024-03-23T03:41:49;12.27;;;9.38;;
44270;SDS011;29963;44.594;11.368;2024-03-23T03:44:15;8.77;;;7.93;;
44270;SDS011;29963;44.594;11.368;2024-03-23T03:46:41;9.65;;;7.72;;
44270;SDS011;29963;44.594;11.368;2024-03-23T03:49:07;11.05;;;8.18;;
44270;SDS011;29963;44.594;11.368;2024-03-23T03:51:33;8.73;;;7.90;;
44270;SDS011;29963;44.594;11.368;2024-03-23T03:53:59;11.23;;;8.05;;
44270;SDS011;29963;44.594;11.368;2024-03-23T03:56:24;9.10;;;7.97;;
44270;SDS011;29963;44.594;11.368;2024-03-23T03:58:50;8.88;;;7.38;;
44270;SDS011;29963;44.594;11.368;2024-03-23T04:01:16;8.68;;;7.55;;
44270;SDS011;29963;44.594;11.368;2024-03-23T04:03:42;8.77;;;7.30;;
44270;SDS011;29963;44.594;11.368;2024-03-23T04:06:11;8.43;;;7.55;;
44270;SDS011;29963;44.594;11.368;2024-03-23T04:08:43;10.65;;;7.80;;
44270;SDS011;29963;44.594;11.368;2024-03-23T04:11:08;8.68;;;6.88;;
44270;SDS011;29963;44.594;11.368;2024-03-23T04:13:34;9.80;;;7.78;;
44270;SDS011;29963;44.594;11.368;2024-03-23T04:16:00;8.02;;;7.22;;
44270;SDS011;29963;44.594;11.368;2024-03-23T04:18:25;8.45;;;7.55;;
44270;SDS011;29963;44.594;11.368;2024-03-23T04:20:51;10.77;;;7.03;;
44270;SDS011;29963;44.594;11.368;2024-03-23T04:23:17;10.88;;;7.93;;
44270;SDS011;29963;44.594;11.368;2024-03-23T04:25:42;8.70;;;7.10;;
44270;SDS011;29963;44.594;11.368;2024-03-23T04:28:08;8.73;;;7.75;;
44270;SDS011;29963;44.594;11.368;2024-03-23T04:30:34;9.40;;;6.95;;
44270;SDS011;29963;44.594;11.368;2024-03-23T04:33:00;11.98;;;7.70;;
44270;SDS011;29963;44.594;11.368;2024-03-23T04:35:26;9.40;;;7.68;;
44270;SDS011;29963;44.594;11.368;2024-03-23T04:37:52;9.50;;;8.38;;
44270;SDS011;29963;44.594;11.368;2024-03-23T04:40:18;10.15;;;7.60;;
44270;SDS011;29963;44.594;11.368;2024-03-23T04:42:44;8.68;;;6.90;;
44270;SDS011;29963;44.594;11.368;2024-03-23T04:45:09;8.15;;;7.35;;
44270;SDS011;29963;44.594;11.368;2024-03-23T04:47:36;8.40;;;7.63;;
44270;SDS011;29963;44.594;11.368;2024-03-23T04:50:04;8.43;;;7.57;;
44270;SDS011;29963;44.594;11.368;2024-03-23T04:52:30;9.02;;;7.53;;
44270;SDS011;29963;44.594;11.368;2024-03-23T04:54:56;8.10;;;7.28;;
44270;SDS011;29963;44.594;11.368;2024-03-23T04:57:22;12.60;;;7.40;;
44270;SDS011;29963;44.594;11.368;2024-03-23T04:59:48;11.40;;;8.55;;
44270;SDS011;29963;44.594;11.368;2024-03-23T05:02:14;9.10;;;7.32;;
44270;SDS011;29963;44.594;11.368;2024-03-23T05:04:40;8.63;;;7.72;;
44270;SDS011;29963;44.594;11.368;2024-03-23T05:07:06;8.45;;;7.55;;
44270;SDS011;29963;44.594;11.368;2024-03-23T05:09:32;7.50;;;6.75;;
44270;SDS011;29963;44.594;11.368;2024-03-23T05:11:58;8.15;;;7.05;;
44270;SDS011;29963;44.594;11.368;2024-03-23T05:14:25;9.90;;;7.35;;
44270;SDS011;29963;44.594;11.368;2024-03-23T05:16:51;6.95;;;5.75;;
44270;SDS011;29963;44.594;11.368;2024-03-23T05:19:17;7.53;;;6.78;;
44270;SDS011;29963;44.594;11.368;2024-03-23T05:21:43;8.38;;;6.97;;
44270;SDS011;29963;44.594;11.368;2024-03-23T05:24:09;7.28;;;6.57;;
44270;SDS011;29963;44.594;11.368;2024-03-23T05:26:35;9.05;;;7.80;;
44270;SDS011;29963;44.594;11.368;2024-03-23T05:29:01;8.10;;;6.93;;
44270;SDS011;29963;44.594;11.368;2024-03-23T05:31:27;8.63;;;7.45;;
44270;SDS011;29963;44.594;11.368;2024-03-23T05:33:55;8.35;;;6.57;;
44270;SDS011;29963;44.594;11.368;2024-03-23T05:36:20;7.53;;;6.82;;
44270;SDS011;29963;44.594;11.368;2024-03-23T05:38:46;8.07;;;6.80;;
44270;SDS011;29963;44.594;11.368;2024-03-23T05:41:12;9.40;;;7.28;;
44270;SDS011;29963;44.594;11.368;2024-03-23T05:43:38;11.88;;;7.68;;
44270;SDS011;29963;44.594;11.368;2024-03-23T05:46:04;8.23;;;6.53;;
44270;SDS011;29963;44.594;11.368;2024-03-23T05:48:38;8.98;;;7.25;;
44270;SDS011;29963;44.594;11.368;2024-03-23T05:51:04;10.63;;;7.30;;
44270;SDS011;29963;44.594;11.368;2024-03-23T05:53:29;8.15;;;6.68;;
44270;SDS011;29963;44.594;11.368;2024-03-23T05:56:02;8.55;;;7.32;;
44270;SDS011;29963;44.594;11.368;2024-03-23T05:58:29;10.02;;;7.20;;
44270;SDS011;29963;44.594;11.368;2024-03-23T06:00:58;8.13;;;6.93;;
44270;SDS011;29963;44.594;11.368;2024-03-23T06:03:25;8.27;;;6.90;;
44270;SDS011;29963;44.594;11.368;2024-03-23T06:05:51;7.88;;;6.80;;
44270;SDS011;29963;44.594;11.368;2024-03-23T06:08:18;7.88;;;6.60;;
44270;SDS011;29963;44.594;11.368;2024-03-23T06:10:44;9.85;;;7.05;;
44270;SDS011;29963;44.594;11.368;2024-03-23T06:13:11;8.35;;;6.82;;
44270;SDS011;29963;44.594;11.368;2024-03-23T06:15:37;11.77;;;7.20;;
44270;SDS011;29963;44.594;11.368;2024-03-23T06:18:03;10.80;;;7.93;;
44270;SDS011;29963;44.594;11.368;2024-03-23T06:20:33;10.02;;;8.02;;
44270;SDS011;29963;44.594;11.368;2024-03-23T06:22:59;6.65;;;6.00;;
44270;SDS011;29963;44.594;11.368;2024-03-23T06:25:28;9.48;;;7.75;;
44270;SDS011;29963;44.594;11.368;2024-03-23T06:27:54;8.20;;;7.28;;
44270;SDS011;29963;44.594;11.368;2024-03-23T06:30:20;9.63;;;7.00;;
44270;SDS011;29963;44.594;11.368;2024-03-23T06:32:45;6.68;;;6.07;;
44270;SDS011;29963;44.594;11.368;2024-03-23T06:35:11;7.75;;;6.88;;
44270;SDS011;29963;44.594;11.368;2024-03-23T06:37:37;7.93;;;5.32;;
44270;SDS011;29963;44.594;11.368;2024-03-23T06:40:04;9.50;;;6.55;;
44270;SDS011;29963;44.594;11.368;2024-03-23T06:42:33;7.72;;;5.40;;
44270;SDS011;29963;44.594;11.368;2024-03-23T06:44:59;9.13;;;6.55;;
44270;SDS011;29963;44.594;11.368;2024-03-23T06:47:24;9.70;;;5.32;;
44270;SDS011;29963;44.594;11.368;2024-03-23T06:49:50;8.50;;;6.43;;
44270;SDS011;29963;44.594;11.368;2024-03-23T06:52:16;6.68;;;4.88;;
44270;SDS011;29963;44.594;11.368;2024-03-23T06:54:42;7.05;;;5.63;;
44270;SDS011;29963;44.594;11.368;2024-03-23T06:57:09;7.05;;;5.47;;
44270;SDS011;29963;44.594;11.368;2024-03-23T06:59:37;5.97;;;4.75;;
44270;SDS011;29963;44.594;11.368;2024-03-23T07:02:03;5.30;;;4.43;;
44270;SDS011;29963;44.594;11.368;2024-03-23T07:04:30;6.45;;;4.55;;
44270;SDS011;29963;44.594;11.368;2024-03-23T07:06:56;4.88;;;4.00;;
44270;SDS011;29963;44.594;11.368;2024-03-23T07:09:21;7.32;;;3.85;;
44270;SDS011;29963;44.594;11.368;2024-03-23T07:11:51;4.82;;;4.15;;
44270;SDS011;29963;44.594;11.368;2024-03-23T07:14:18;5.00;;;3.78;;
44270;SDS011;29963;44.594;11.368;2024-03-23T07:16:44;5.80;;;4.10;;
44270;SDS011;29963;44.594;11.368;2024-03-23T07:19:09;4.55;;;3.70;;
44270;SDS011;29963;44.594;11.368;2024-03-23T07:21:35;5.05;;;4.55;;
44270;SDS011;29963;44.594;11.368;2024-03-23T07:24:01;6.28;;;4.15;;
44270;SDS011;29963;44.594;11.368;2024-03-23T07:26:27;5.53;;;4.10;;
44270;SDS011;29963;44.594;11.368;2024-03-23T07:28:53;3.95;;;3.55;;
44270;SDS011;29963;44.594;11.368;2024-03-23T07:31:18;4.45;;;3.20;;
44270;SDS011;29963;44.594;11.368;2024-03-23T07:33:45;4.25;;;3.28;;
44270;SDS011;29963;44.594;11.368;2024-03-23T07:36:13;5.13;;;3.90;;
44270;SDS011;29963;44.594;11.368;2024-03-23T07:38:42;6.15;;;3.65;;
44270;SDS011;29963;44.594;11.368;2024-03-23T07:41:12;5.00;;;4.22;;
44270;SDS011;29963;44.594;11.368;2024-03-23T07:43:43;5.40;;;4.28;;
44270;SDS011;29963;44.594;11.368;2024-03-23T07:46:10;5.13;;;4.45;;
44270;SDS011;29963;44.594;11.368;2024-03-23T07:48:37;4.93;;;3.90;;
44270;SDS011;29963;44.594;11.368;2024-03-23T07:51:04;4.78;;;3.90;;
44270;SDS011;29963;44.594;11.368;2024-03-23T07:53:42;5.85;;;4.05;;
44270;SDS011;29963;44.594;11.368;2024-03-23T07:56:11;4.45;;;3.70;;
44270;SDS011;29963;44.594;11.368;2024-03-23T07:58:36;5.28;;;4.47;;
44270;SDS011;29963;44.594;11.368;2024-03-23T08:01:12;4.85;;;3.85;;
44270;SDS011;29963;44.594;11.368;2024-03-23T08:03:40;4.22;;;3.78;;
44270;SDS011;29963;44.594;11.368;2024-03-23T08:08:43;3.35;;;2.75;;
44270;SDS011;29963;44.594;11.368;2024-03-23T08:11:11;3.40;;;3.05;;
44270;SDS011;29963;44.594;11.368;2024-03-23T08:13:41;4.93;;;3.40;;
44270;SDS011;29963;44.594;11.368;2024-03-23T08:16:09;3.90;;;3.38;;
44270;SDS011;29963;44.594;11.368;2024-03-23T08:18:36;2.72;;;2.53;;
44270;SDS011;29963;44.594;11.368;2024-03-23T08:21:03;4.15;;;2.97;;
44270;SDS011;29963;44.594;11.368;2024-03-23T08:23:30;3.50;;;3.20;;
44270;SDS011;29963;44.594;11.368;2024-03-23T08:26:02;3.47;;;2.92;;
44270;SDS011;29963;44.594;11.368;2024-03-23T08:28:32;3.83;;;2.65;;
44270;SDS011;29963;44.594;11.368;2024-03-23T08:31:06;3.78;;;3.13;;
44270;SDS011;29963;44.594;11.368;2024-03-23T08:33:33;3.30;;;3.00;;
44270;SDS011;29963;44.594;11.368;2024-03-23T08:36:00;3.33;;;2.78;;
44270;SDS011;29963;44.594;11.368;2024-03-23T08:38:27;5.10;;;3.08;;
44270;SDS011;29963;44.594;11.368;2024-03-23T08:41:00;4.95;;;2.50;;
44270;SDS011;29963;44.594;11.368;2024-03-23T08:43:27;5.55;;;3.90;;
44270;SDS011;29963;44.594;11.368;2024-03-23T08:46:02;3.17;;;2.80;;
44270;SDS011;29963;44.594;11.368;2024-03-23T08:48:35;3.17;;;2.92;;
44270;SDS011;29963;44.594;11.368;2024-03-23T08:51:05;5.68;;;3.35;;
44270;SDS011;29963;44.594;11.368;2024-03-23T08:53:32;3.38;;;2.67;;
44270;SDS011;29963;44.594;11.368;2024-03-23T08:55:58;4.88;;;3.03;;
44270;SDS011;29963;44.594;11.368;2024-03-23T08:58:26;4.28;;;2.50;;
44270;SDS011;29963;44.594;11.368;2024-03-23T09:00:52;5.35;;;3.30;;
44270;SDS011;29963;44.594;11.368;2024-03-23T09:03:21;3.50;;;3.15;;
44270;SDS011;29963;44.594;11.368;2024-03-23T09:05:50;3.03;;;2.72;;
44270;SDS011;29963;44.594;11.368;2024-03-23T09:08:16;6.18;;;2.78;;
44270;SDS011;29963;44.594;11.368;2024-03-23T09:10:42;3.40;;;3.05;;
44270;SDS011;29963;44.594;11.368;2024-03-23T09:13:08;3.95;;;3.47;;
44270;SDS011;29963;44.594;11.368;2024-03-23T09:15:34;4.10;;;2.97;;
44270;SDS011;29963;44.594;11.368;2024-03-23T09:18:01;3.13;;;2.80;;
44270;SDS011;29963;44.594;11.368;2024-03-23T09:20:27;7.43;;;3.42;;
44270;SDS011;29963;44.594;11.368;2024-03-23T09:22:53;3.72;;;3.00;;
44270;SDS011;29963;44.594;11.368;2024-03-23T09:25:18;4.15;;;3.75;;
44270;SDS011;29963;44.594;11.368;2024-03-23T09:27:47;5.18;;;3.47;;
44270;SDS011;29963;44.594;11.368;2024-03-23T09:30:13;4.43;;;3.17;;
44270;SDS011;29963;44.594;11.368;2024-03-23T09:32:39;3.60;;;3.30;;
44270;SDS011;29963;44.594;11.368;2024-03-23T09:35:07;4.53;;;3.50;;
44270;SDS011;29963;44.594;11.368;2024-03-23T09:37:32;3.95;;;3.20;;
44270;SDS011;29963;44.594;11.368;2024-03-23T09:39:58;5.25;;;3.50;;
44270;SDS011;29963;44.594;11.368;2024-03-23T09:42:24;4.82;;;3.55;;
44270;SDS011;29963;44.594;11.368;2024-03-23T09:44:51;4.97;;;3.72;;
44270;SDS011;29963;44.594;11.368;2024-03-23T09:47:17;4.18;;;3.60;;
44270;SDS011;29963;44.594;11.368;2024-03-23T09:49:43;3.53;;;3.22;;
44270;SDS011;29963;44.594;11.368;2024-03-23T09:52:09;4.53;;;3.65;;
44270;SDS011;29963;44.594;11.368;2024-03-23T09:54:35;5.10;;;3.10;;
44270;SDS011;29963;44.594;11.368;2024-03-23T09:57:01;3.92;;;3.33;;
44270;SDS011;29963;44.594;11.368;2024-03-23T09:59:27;4.10;;;3.53;;
44270;SDS011;29963;44.594;11.368;2024-03-23T10:01:54;3.40;;;2.92;;
44270;SDS011;29963;44.594;11.368;2024-03-23T10:04:38;3.97;;;3.60;;
44270;SDS011;29963;44.594;11.368;2024-03-23T10:07:12;3.85;;;3.30;;
44270;SDS011;29963;44.594;11.368;2024-03-23T10:09:39;3.30;;;3.00;;
44270;SDS011;29963;44.594;11.368;2024-03-23T10:12:11;4.13;;;3.22;;
44270;SDS011;29963;44.594;11.368;2024-03-23T10:14:40;3.88;;;3.38;;
44270;SDS011;29963;44.594;11.368;2024-03-23T10:17:16;3.10;;;2.80;;
44270;SDS011;29963;44.594;11.368;2024-03-23T10:19:46;3.38;;;3.08;;
44270;SDS011;29963;44.594;11.368;2024-03-23T10:22:17;3.38;;;3.08;;
44270;SDS011;29963;44.594;11.368;2024-03-23T10:24:47;4.53;;;4.13;;
44270;SDS011;29963;44.594;11.368;2024-03-23T10:27:17;4.32;;;3.38;;
44270;SDS011;29963;44.594;11.368;2024-03-23T10:29:44;4.13;;;3.13;;
44270;SDS011;29963;44.594;11.368;2024-03-23T10:32:11;3.55;;;3.25;;
44270;SDS011;29963;44.594;11.368;2024-03-23T10:34:38;4.85;;;4.07;;
44270;SDS011;29963;44.594;11.368;2024-03-23T10:37:04;4.75;;;4.18;;
44270;SDS011;29963;44.594;11.368;2024-03-23T10:39:32;3.70;;;3.13;;
44270;SDS011;29963;44.594;11.368;2024-03-23T10:42:02;3.47;;;3.00;;
44270;SDS011;29963;44.594;11.368;2024-03-23T10:44:29;3.53;;;3.15;;
44270;SDS011;29963;44.594;11.368;2024-03-23T10:46:56;6.22;;;3.95;;
44270;SDS011;29963;44.594;11.368;2024-03-23T10:49:28;5.32;;;3.42;;
44270;SDS011;29963;44.594;11.368;2024-03-23T10:51:56;5.88;;;3.92;;
44270;SDS011;29963;44.594;11.368;2024-03-23T10:54:23;6.28;;;3.78;;
44270;SDS011;29963;44.594;11.368;2024-03-23T10:57:14;5.55;;;4.28;;
44270;SDS011;29963;44.594;11.368;2024-03-23T10:59:40;5.05;;;3.55;;
44270;SDS011;29963;44.594;11.368;2024-03-23T11:02:07;4.20;;;3.80;;
44270;SDS011;29963;44.594;11.368;2024-03-23T11:04:43;4.75;;;3.63;;
44270;SDS011;29963;44.594;11.368;2024-03-23T11:09:53;4.80;;;3.97;;
44270;SDS011;29963;44.594;11.368;2024-03-23T11:14:50;7.78;;;4.05;;
44270;SDS011;29963;44.594;11.368;2024-03-23T11:17:18;4.05;;;3.60;;
44270;SDS011;29963;44.594;11.368;2024-03-23T11:19:44;5.40;;;3.78;;
44270;SDS011;29963;44.594;11.368;2024-03-23T11:22:17;5.28;;;4.10;;
44270;SDS011;29963;44.594;11.368;2024-03-23T11:25:03;8.73;;;4.03;;
44270;SDS011;29963;44.594;11.368;2024-03-23T11:27:51;3.67;;;3.22;;
44270;SDS011;29963;44.594;11.368;2024-03-23T11:30:18;4.32;;;3.60;;
44270;SDS011;29963;44.594;11.368;2024-03-23T11:32:45;5.10;;;4.28;;
44270;SDS011;29963;44.594;11.368;2024-03-23T11:35:27;3.85;;;3.50;;
44270;SDS011;29963;44.594;11.368;2024-03-23T11:40:36;5.28;;;3.92;;
44270;SDS011;29963;44.594;11.368;2024-03-23T11:43:04;3.38;;;3.03;;
44270;SDS011;29963;44.594;11.368;2024-03-23T11:45:37;4.68;;;4.20;;
44270;SDS011;29963;44.594;11.368;2024-03-23T11:48:06;5.20;;;3.85;;
44270;SDS011;29963;44.594;11.368;2024-03-23T11:50:36;4.82;;;3.95;;
44270;SDS011;29963;44.594;11.368;2024-03-23T11:53:07;4.00;;;3.00;;
44270;SDS011;29963;44.594;11.368;2024-03-23T11:55:41;6.20;;;4.15;;
44270;SDS011;29963;44.594;11.368;2024-03-23T11:58:17;5.10;;;4.28;;
44270;SDS011;29963;44.594;11.368;2024-03-23T12:00:50;6.72;;;4.50;;
44270;SDS011;29963;44.594;11.368;2024-03-23T12:03:37;4.68;;;4.22;;
44270;SDS011;29963;44.594;11.368;2024-03-23T12:06:03;5.65;;;4.60;;
44270;SDS011;29963;44.594;11.368;2024-03-23T12:08:33;4.05;;;3.65;;
44270;SDS011;29963;44.594;11.368;2024-03-23T12:13:34;5.80;;;4.50;;
44270;SDS011;29963;44.594;11.368;2024-03-23T12:18:48;5.53;;;4.35;;
44270;SDS011;29963;44.594;11.368;2024-03-23T12:21:14;5.20;;;3.70;;
44270;SDS011;29963;44.594;11.368;2024-03-23T12:23:41;3.83;;;3.13;;
44270;SDS011;29963;44.594;11.368;2024-03-23T12:26:09;6.55;;;3.42;;
44270;SDS011;29963;44.594;11.368;2024-03-23T12:28:36;7.55;;;4.13;;
44270;SDS011;29963;44.594;11.368;2024-03-23T12:31:02;5.18;;;4.22;;
44270;SDS011;29963;44.594;11.368;2024-03-23T12:33:28;4.38;;;3.58;;
44270;SDS011;29963;44.594;11.368;2024-03-23T12:35:54;5.65;;;3.55;;
44270;SDS011;29963;44.594;11.368;2024-03-23T12:38:19;6.40;;;5.32;;
44270;SDS011;29963;44.594;11.368;2024-03-23T12:40:49;6.63;;;4.60;;
44270;SDS011;29963;44.594;11.368;2024-03-23T12:43:15;5.15;;;4.65;;
44270;SDS011;29963;44.594;11.368;2024-03-23T12:45:41;6.63;;;4.28;;
44270;SDS011;29963;44.594;11.368;2024-03-23T12:48:11;5.32;;;3.38;;
44270;SDS011;29963;44.594;11.368;2024-03-23T12:50:36;6.55;;;3.67;;
44270;SDS011;29963;44.594;11.368;2024-03-23T12:53:02;4.03;;;3.42;;
44270;SDS011;29963;44.594;11.368;2024-03-23T12:55:28;5.18;;;3.85;;
44270;SDS011;29963;44.594;11.368;2024-03-23T12:57:54;5.50;;;3.65;;
44270;SDS011;29963;44.594;11.368;2024-03-23T13:00:20;4.53;;;3.28;;
44270;SDS011;29963;44.594;11.368;2024-03-23T13:02:45;5.85;;;4.28;;
44270;SDS011;29963;44.594;11.368;2024-03-23T13:05:11;6.43;;;3.67;;
44270;SDS011;29963;44.594;11.368;2024-03-23T13:07:36;5.03;;;3.85;;
44270;SDS011;29963;44.594;11.368;2024-03-23T13:10:03;4.25;;;3.80;;
44270;SDS011;29963;44.594;11.368;2024-03-23T13:12:30;8.55;;;3.83;;
44270;SDS011;29963;44.594;11.368;2024-03-23T13:14:56;4.50;;;3.90;;
44270;SDS011;29963;44.594;11.368;2024-03-23T13:17:21;4.25;;;3.50;;
44270;SDS011;29963;44.594;11.368;2024-03-23T13:19:47;4.63;;;4.13;;
44270;SDS011;29963;44.594;11.368;2024-03-23T13:22:13;5.53;;;4.72;;
44270;SDS011;29963;44.594;11.368;2024-03-23T13:24:38;6.30;;;4.00;;
44270;SDS011;29963;44.594;11.368;2024-03-23T13:27:04;4.78;;;4.07;;
44270;SDS011;29963;44.594;11.368;2024-03-23T13:29:33;4.90;;;3.80;;
44270;SDS011;29963;44.594;11.368;2024-03-23T13:32:02;6.10;;;4.10;;
44270;SDS011;29963;44.594;11.368;2024-03-23T13:34:28;4.75;;;3.85;;
44270;SDS011;29963;44.594;11.368;2024-03-23T13:36:54;4.10;;;3.70;;
44270;SDS011;29963;44.594;11.368;2024-03-23T13:39:23;4.25;;;3.30;;
44270;SDS011;29963;44.594;11.368;2024-03-23T13:41:49;5.40;;;3.78;;
44270;SDS011;29963;44.594;11.368;2024-03-23T13:44:14;4.50;;;3.47;;
44270;SDS011;29963;44.594;11.368;2024-03-23T13:46:41;6.28;;;4.20;;
44270;SDS011;29963;44.594;11.368;2024-03-23T13:49:12;4.93;;;4.10;;
44270;SDS011;29963;44.594;11.368;2024-03-23T13:51:55;5.50;;;3.67;;
44270;SDS011;29963;44.594;11.368;2024-03-23T13:54:24;4.95;;;4.22;;
44270;SDS011;29963;44.594;11.368;2024-03-23T13:56:51;4.18;;;3.47;;
44270;SDS011;29963;44.594;11.368;2024-03-23T13:59:17;5.53;;;3.38;;
44270;SDS011;29963;44.594;11.368;2024-03-23T14:01:46;3.58;;;2.85;;
44270;SDS011;29963;44.594;11.368;2024-03-23T14:04:12;3.53;;;2.60;;
44270;SDS011;29963;44.594;11.368;2024-03-23T14:06:38;4.38;;;2.63;;
44270;SDS011;29963;44.594;11.368;2024-03-23T14:09:04;4.35;;;2.40;;
44270;SDS011;29963;44.594;11.368;2024-03-23T14:11:36;5.38;;;2.13;;
44270;SDS011;29963;44.594;11.368;2024-03-23T14:14:02;3.70;;;2.63;;
44270;SDS011;29963;44.594;11.368;2024-03-23T14:16:32;2.72;;;2.13;;
44270;SDS011;29963;44.594;11.368;2024-03-23T14:18:58;5.43;;;2.40;;
44270;SDS011;29963;44.594;11.368;2024-03-23T14:21:24;6.40;;;2.47;;
44270;SDS011;29963;44.594;11.368;2024-03-23T14:23:50;2.28;;;2.03;;
44270;SDS011;29963;44.594;11.368;2024-03-23T14:26:16;3.53;;;2.58;;
44270;SDS011;29963;44.594;11.368;2024-03-23T14:28:41;5.35;;;2.22;;
44270;SDS011;29963;44.594;11.368;2024-03-23T14:31:07;4.82;;;2.20;;
44270;SDS011;29963;44.594;11.368;2024-03-23T14:33:36;3.25;;;2.05;;
44270;SDS011;29963;44.594;11.368;2024-03-23T14:36:02;2.13;;;1.92;;
44270;SDS011;29963;44.594;11.368;2024-03-23T14:38:28;3.15;;;2.00;;
44270;SDS011;29963;44.594;11.368;2024-03-23T14:40:57;2.58;;;2.20;;
44270;SDS011;29963;44.594;11.368;2024-03-23T14:43:24;4.05;;;2.38;;
44270;SDS011;29963;44.594;11.368;2024-03-23T14:48:34;6.53;;;2.22;;
44270;SDS011;29963;44.594;11.368;2024-03-23T14:51:00;6.55;;;1.98;;
44270;SDS011;29963;44.594;11.368;2024-03-23T14:53:29;6.70;;;2.00;;
44270;SDS011;29963;44.594;11.368;2024-03-23T14:55:56;5.88;;;2.67;;
44270;SDS011;29963;44.594;11.368;2024-03-23T14:58:21;6.25;;;3.13;;
44270;SDS011;29963;44.594;11.368;2024-03-23T15:00:50;3.85;;;1.67;;
44270;SDS011;29963;44.594;11.368;2024-03-23T15:03:17;4.00;;;1.80;;
44270;SDS011;29963;44.594;11.368;2024-03-23T15:05:51;7.53;;;2.00;;
44270;SDS011;29963;44.594;11.368;2024-03-23T15:08:20;3.08;;;1.98;;
44270;SDS011;29963;44.594;11.368;2024-03-23T15:10:46;3.85;;;1.63;;
44270;SDS011;29963;44.594;11.368;2024-03-23T15:13:12;4.30;;;1.38;;
44270;SDS011;29963;44.594;11.368;2024-03-23T15:15:39;4.93;;;1.58;;
44270;SDS011;29963;44.594;11.368;2024-03-23T15:18:06;3.58;;;2.08;;
44270;SDS011;29963;44.594;11.368;2024-03-23T15:20:32;3.80;;;1.45;;
44270;SDS011;29963;44.594;11.368;2024-03-23T15:23:00;4.00;;;1.75;;
44270;SDS011;29963;44.594;11.368;2024-03-23T15:25:27;3.10;;;1.70;;
44270;SDS011;29963;44.594;11.368;2024-03-23T15:27:53;7.63;;;1.52;;
44270;SDS011;29963;44.594;11.368;2024-03-23T15:30:20;1.52;;;1.42;;
44270;SDS011;29963;44.594;11.368;2024-03-23T15:32:45;1.70;;;1.38;;
44270;SDS011;29963;44.594;11.368;2024-03-23T15:35:12;5.00;;;1.55;;
44270;SDS011;29963;44.594;11.368;2024-03-23T15:37:37;4.55;;;1.38;;
44270;SDS011;29963;44.594;11.368;2024-03-23T15:40:04;3.90;;;2.00;;
44270;SDS011;29963;44.594;11.368;2024-03-23T15:42:31;3.58;;;1.45;;
44270;SDS011;29963;44.594;11.368;2024-03-23T15:44:57;3.85;;;1.48;;